sensor_id;sensor_type;location;lat;lon;timestamp;P1;durP1;ratioP1;P2;durP2;ratioP2
38399;SDS011;24180;42.676;23.320;2022-10-15T00:00:42;6.07;;;4.93;;
38399;SDS011;24180;42.676;23.320;2022-10-15T00:03:09;6.70;;;5.00;;
38399;SDS011;24180;42.676;23.320;2022-10-15T00:05:35;7.37;;;5.80;;
38399;SDS011;24180;42.676;23.320;2022-10-15T00:08:01;6.63;;;5.20;;
38399;SDS011;24180;42.676;23.320;2022-10-15T00:10:27;6.20;;;4.80;;
38399;SDS011;24180;42.676;23.320;2022-10-15T00:12:53;5.07;;;4.57;;
38399;SDS011;24180;42.676;23.320;2022-10-15T00:15:18;5.50;;;4.93;;
38399;SDS011;24180;42.676;23.320;2022-10-15T00:17:44;5.77;;;5.17;;
38399;SDS011;24180;42.676;23.320;2022-10-15T00:20:09;5.73;;;5.00;;
38399;SDS011;24180;42.676;23.320;2022-10-15T00:22:36;6.33;;;5.70;;
38399;SDS011;24180;42.676;23.320;2022-10-15T00:25:02;5.93;;;5.33;;
38399;SDS011;24180;42.676;23.320;2022-10-15T00:27:28;5.10;;;4.70;;
38399;SDS011;24180;42.676;23.320;2022-10-15T00:29:54;5.77;;;4.80;;
38399;SDS011;24180;42.676;23.320;2022-10-15T00:32:19;5.50;;;5.00;;
38399;SDS011;24180;42.676;23.320;2022-10-15T00:34:45;6.23;;;5.30;;
38399;SDS011;24180;42.676;23.320;2022-10-15T00:37:10;5.37;;;4.87;;
38399;SDS011;24180;42.676;23.320;2022-10-15T00:39:36;5.93;;;5.17;;
38399;SDS011;24180;42.676;23.320;2022-10-15T00:42:02;7.07;;;5.70;;
38399;SDS011;24180;42.676;23.320;2022-10-15T00:49:48;6.13;;;5.53;;
38399;SDS011;24180;42.676;23.320;2022-10-15T00:52:24;5.97;;;5.27;;
38399;SDS011;24180;42.676;23.320;2022-10-15T00:54:57;5.80;;;5.30;;
38399;SDS011;24180;42.676;23.320;2022-10-15T00:57:28;6.30;;;5.70;;
38399;SDS011;24180;42.676;23.320;2022-10-15T00:59:57;7.83;;;5.50;;
38399;SDS011;24180;42.676;23.320;2022-10-15T01:02:26;7.00;;;5.40;;
38399;SDS011;24180;42.676;23.320;2022-10-15T01:04:52;6.00;;;5.40;;
38399;SDS011;24180;42.676;23.320;2022-10-15T01:07:19;7.10;;;5.73;;
38399;SDS011;24180;42.676;23.320;2022-10-15T01:09:44;7.20;;;5.93;;
38399;SDS011;24180;42.676;23.320;2022-10-15T01:12:14;6.83;;;6.23;;
38399;SDS011;24180;42.676;23.320;2022-10-15T01:17:34;7.67;;;6.57;;
38399;SDS011;24180;42.676;23.320;2022-10-15T01:25:59;7.27;;;6.00;;
38399;SDS011;24180;42.676;23.320;2022-10-15T01:37:36;7.33;;;6.13;;
38399;SDS011;24180;42.676;23.320;2022-10-15T01:42:59;8.03;;;6.10;;
38399;SDS011;24180;42.676;23.320;2022-10-15T01:48:07;6.37;;;5.77;;
38399;SDS011;24180;42.676;23.320;2022-10-15T01:50:36;6.53;;;5.93;;
38399;SDS011;24180;42.676;23.320;2022-10-15T01:53:06;6.60;;;6.00;;
38399;SDS011;24180;42.676;23.320;2022-10-15T01:55:34;7.80;;;6.07;;
38399;SDS011;24180;42.676;23.320;2022-10-15T01:58:01;7.70;;;6.00;;
38399;SDS011;24180;42.676;23.320;2022-10-15T02:00:29;6.73;;;6.13;;
38399;SDS011;24180;42.676;23.320;2022-10-15T02:02:58;8.03;;;6.80;;
38399;SDS011;24180;42.676;23.320;2022-10-15T02:05:31;6.60;;;5.90;;
38399;SDS011;24180;42.676;23.320;2022-10-15T02:08:12;7.20;;;6.23;;
38399;SDS011;24180;42.676;23.320;2022-10-15T02:10:42;7.13;;;6.10;;
38399;SDS011;24180;42.676;23.320;2022-10-15T02:13:24;6.63;;;5.90;;
38399;SDS011;24180;42.676;23.320;2022-10-15T02:21:25;7.00;;;6.30;;
38399;SDS011;24180;42.676;23.320;2022-10-15T02:24:07;6.13;;;5.50;;
38399;SDS011;24180;42.676;23.320;2022-10-15T02:26:37;6.60;;;6.00;;
38399;SDS011;24180;42.676;23.320;2022-10-15T02:29:06;7.27;;;6.23;;
38399;SDS011;24180;42.676;23.320;2022-10-15T02:31:36;7.13;;;6.43;;
38399;SDS011;24180;42.676;23.320;2022-10-15T02:34:05;7.30;;;5.90;;
38399;SDS011;24180;42.676;23.320;2022-10-15T02:36:33;9.43;;;6.43;;
38399;SDS011;24180;42.676;23.320;2022-10-15T02:39:00;8.80;;;6.57;;
38399;SDS011;24180;42.676;23.320;2022-10-15T02:41:28;6.77;;;6.07;;
38399;SDS011;24180;42.676;23.320;2022-10-15T02:43:54;10.17;;;6.63;;
38399;SDS011;24180;42.676;23.320;2022-10-15T02:46:19;9.93;;;6.63;;
38399;SDS011;24180;42.676;23.320;2022-10-15T02:48:45;7.53;;;6.30;;
38399;SDS011;24180;42.676;23.320;2022-10-15T02:51:11;7.60;;;6.53;;
38399;SDS011;24180;42.676;23.320;2022-10-15T02:53:36;8.57;;;6.50;;
38399;SDS011;24180;42.676;23.320;2022-10-15T02:56:02;7.60;;;6.33;;
38399;SDS011;24180;42.676;23.320;2022-10-15T02:58:28;8.83;;;6.27;;
38399;SDS011;24180;42.676;23.320;2022-10-15T03:00:55;6.63;;;6.03;;
38399;SDS011;24180;42.676;23.320;2022-10-15T03:03:21;16.57;;;7.00;;
38399;SDS011;24180;42.676;23.320;2022-10-15T03:05:46;7.33;;;6.27;;
38399;SDS011;24180;42.676;23.320;2022-10-15T03:08:12;7.40;;;6.30;;
38399;SDS011;24180;42.676;23.320;2022-10-15T03:10:38;6.50;;;5.80;;
38399;SDS011;24180;42.676;23.320;2022-10-15T03:13:04;6.93;;;6.23;;
38399;SDS011;24180;42.676;23.320;2022-10-15T03:15:30;6.73;;;5.97;;
38399;SDS011;24180;42.676;23.320;2022-10-15T03:17:55;7.47;;;6.23;;
38399;SDS011;24180;42.676;23.320;2022-10-15T03:20:21;7.80;;;6.17;;
38399;SDS011;24180;42.676;23.320;2022-10-15T03:22:47;8.30;;;6.47;;
38399;SDS011;24180;42.676;23.320;2022-10-15T03:25:12;6.73;;;6.13;;
38399;SDS011;24180;42.676;23.320;2022-10-15T03:27:38;9.03;;;6.37;;
38399;SDS011;24180;42.676;23.320;2022-10-15T03:30:04;7.87;;;6.23;;
38399;SDS011;24180;42.676;23.320;2022-10-15T03:32:29;7.90;;;5.53;;
38399;SDS011;24180;42.676;23.320;2022-10-15T03:34:55;7.03;;;5.93;;
38399;SDS011;24180;42.676;23.320;2022-10-15T03:37:20;8.53;;;6.63;;
38399;SDS011;24180;42.676;23.320;2022-10-15T03:39:46;7.00;;;6.30;;
38399;SDS011;24180;42.676;23.320;2022-10-15T03:42:11;7.10;;;6.50;;
38399;SDS011;24180;42.676;23.320;2022-10-15T03:44:37;7.10;;;6.10;;
38399;SDS011;24180;42.676;23.320;2022-10-15T03:47:02;9.97;;;6.50;;
38399;SDS011;24180;42.676;23.320;2022-10-15T03:49:28;8.60;;;6.30;;
38399;SDS011;24180;42.676;23.320;2022-10-15T03:51:53;8.07;;;5.90;;
38399;SDS011;24180;42.676;23.320;2022-10-15T03:54:19;7.60;;;6.07;;
38399;SDS011;24180;42.676;23.320;2022-10-15T03:56:44;7.73;;;6.83;;
38399;SDS011;24180;42.676;23.320;2022-10-15T03:59:10;8.40;;;6.70;;
38399;SDS011;24180;42.676;23.320;2022-10-15T04:01:35;8.30;;;6.63;;
38399;SDS011;24180;42.676;23.320;2022-10-15T04:04:02;7.90;;;6.60;;
38399;SDS011;24180;42.676;23.320;2022-10-15T04:06:28;7.73;;;6.60;;
38399;SDS011;24180;42.676;23.320;2022-10-15T04:08:53;7.20;;;6.40;;
38399;SDS011;24180;42.676;23.320;2022-10-15T04:11:18;7.20;;;6.50;;
38399;SDS011;24180;42.676;23.320;2022-10-15T04:13:48;7.90;;;6.50;;
38399;SDS011;24180;42.676;23.320;2022-10-15T04:16:14;11.37;;;6.50;;
38399;SDS011;24180;42.676;23.320;2022-10-15T04:18:39;8.43;;;6.47;;
38399;SDS011;24180;42.676;23.320;2022-10-15T04:21:05;8.20;;;6.40;;
38399;SDS011;24180;42.676;23.320;2022-10-15T04:23:30;8.40;;;6.90;;
38399;SDS011;24180;42.676;23.320;2022-10-15T04:25:58;7.03;;;6.33;;
38399;SDS011;24180;42.676;23.320;2022-10-15T04:28:25;7.40;;;6.20;;
38399;SDS011;24180;42.676;23.320;2022-10-15T04:30:54;8.60;;;6.77;;
38399;SDS011;24180;42.676;23.320;2022-10-15T04:33:21;7.73;;;6.93;;
38399;SDS011;24180;42.676;23.320;2022-10-15T04:35:46;8.60;;;7.00;;
38399;SDS011;24180;42.676;23.320;2022-10-15T04:38:12;8.80;;;6.77;;
38399;SDS011;24180;42.676;23.320;2022-10-15T04:40:37;10.50;;;7.07;;
38399;SDS011;24180;42.676;23.320;2022-10-15T04:43:03;7.63;;;6.93;;
38399;SDS011;24180;42.676;23.320;2022-10-15T04:45:28;11.70;;;7.50;;
38399;SDS011;24180;42.676;23.320;2022-10-15T04:47:55;8.07;;;6.97;;
38399;SDS011;24180;42.676;23.320;2022-10-15T04:50:21;8.30;;;7.43;;
38399;SDS011;24180;42.676;23.320;2022-10-15T04:52:46;10.17;;;8.03;;
38399;SDS011;24180;42.676;23.320;2022-10-15T04:55:12;8.20;;;7.37;;
38399;SDS011;24180;42.676;23.320;2022-10-15T04:57:38;7.73;;;7.03;;
38399;SDS011;24180;42.676;23.320;2022-10-15T05:00:04;9.07;;;6.50;;
38399;SDS011;24180;42.676;23.320;2022-10-15T05:02:30;9.77;;;7.83;;
38399;SDS011;24180;42.676;23.320;2022-10-15T05:04:56;11.60;;;7.60;;
38399;SDS011;24180;42.676;23.320;2022-10-15T05:07:22;8.30;;;7.43;;
38399;SDS011;24180;42.676;23.320;2022-10-15T05:09:47;9.60;;;7.73;;
38399;SDS011;24180;42.676;23.320;2022-10-15T05:12:13;9.57;;;7.30;;
38399;SDS011;24180;42.676;23.320;2022-10-15T05:14:38;8.97;;;7.27;;
38399;SDS011;24180;42.676;23.320;2022-10-15T05:17:04;13.53;;;7.33;;
38399;SDS011;24180;42.676;23.320;2022-10-15T05:19:29;8.77;;;7.20;;
38399;SDS011;24180;42.676;23.320;2022-10-15T05:21:55;8.63;;;7.83;;
38399;SDS011;24180;42.676;23.320;2022-10-15T05:24:21;12.67;;;7.40;;
38399;SDS011;24180;42.676;23.320;2022-10-15T05:26:46;11.27;;;7.53;;
38399;SDS011;24180;42.676;23.320;2022-10-15T05:29:12;10.60;;;7.17;;
38399;SDS011;24180;42.676;23.320;2022-10-15T05:31:37;7.40;;;6.70;;
38399;SDS011;24180;42.676;23.320;2022-10-15T05:34:07;8.40;;;6.93;;
38399;SDS011;24180;42.676;23.320;2022-10-15T05:36:33;8.53;;;7.23;;
38399;SDS011;24180;42.676;23.320;2022-10-15T05:38:59;10.37;;;7.80;;
38399;SDS011;24180;42.676;23.320;2022-10-15T05:41:26;9.23;;;7.80;;
38399;SDS011;24180;42.676;23.320;2022-10-15T05:43:54;9.23;;;8.03;;
38399;SDS011;24180;42.676;23.320;2022-10-15T05:46:21;9.63;;;7.47;;
38399;SDS011;24180;42.676;23.320;2022-10-15T05:48:48;12.00;;;7.90;;
38399;SDS011;24180;42.676;23.320;2022-10-15T05:51:19;12.67;;;7.90;;
38399;SDS011;24180;42.676;23.320;2022-10-15T05:53:45;10.83;;;8.00;;
38399;SDS011;24180;42.676;23.320;2022-10-15T05:56:11;8.10;;;7.30;;
38399;SDS011;24180;42.676;23.320;2022-10-15T05:58:37;9.00;;;7.90;;
38399;SDS011;24180;42.676;23.320;2022-10-15T06:01:04;8.90;;;8.00;;
38399;SDS011;24180;42.676;23.320;2022-10-15T06:03:34;11.47;;;8.20;;
38399;SDS011;24180;42.676;23.320;2022-10-15T06:06:00;11.67;;;8.87;;
38399;SDS011;24180;42.676;23.320;2022-10-15T06:08:26;12.17;;;7.90;;
38399;SDS011;24180;42.676;23.320;2022-10-15T06:10:52;9.20;;;7.90;;
38399;SDS011;24180;42.676;23.320;2022-10-15T06:13:18;12.00;;;8.13;;
38399;SDS011;24180;42.676;23.320;2022-10-15T06:15:44;11.20;;;7.87;;
38399;SDS011;24180;42.676;23.320;2022-10-15T06:18:10;11.83;;;7.20;;
38399;SDS011;24180;42.676;23.320;2022-10-15T06:20:40;10.13;;;7.80;;
38399;SDS011;24180;42.676;23.320;2022-10-15T06:23:06;10.33;;;7.83;;
38399;SDS011;24180;42.676;23.320;2022-10-15T06:25:32;8.97;;;7.67;;
38399;SDS011;24180;42.676;23.320;2022-10-15T06:28:04;7.47;;;6.80;;
38399;SDS011;24180;42.676;23.320;2022-10-15T06:30:30;7.93;;;7.20;;
38399;SDS011;24180;42.676;23.320;2022-10-15T06:32:56;9.90;;;7.07;;
38399;SDS011;24180;42.676;23.320;2022-10-15T06:35:22;10.60;;;8.17;;
38399;SDS011;24180;42.676;23.320;2022-10-15T06:37:49;33.63;;;12.10;;
38399;SDS011;24180;42.676;23.320;2022-10-15T06:40:24;16.17;;;8.97;;
38399;SDS011;24180;42.676;23.320;2022-10-15T06:42:52;11.83;;;7.57;;
38399;SDS011;24180;42.676;23.320;2022-10-15T06:45:19;9.20;;;7.70;;
38399;SDS011;24180;42.676;23.320;2022-10-15T06:47:45;7.93;;;7.23;;
38399;SDS011;24180;42.676;23.320;2022-10-15T06:50:13;9.30;;;7.63;;
38399;SDS011;24180;42.676;23.320;2022-10-15T06:52:38;9.13;;;7.77;;
38399;SDS011;24180;42.676;23.320;2022-10-15T06:55:04;9.77;;;8.07;;
38399;SDS011;24180;42.676;23.320;2022-10-15T06:57:30;11.77;;;7.73;;
38399;SDS011;24180;42.676;23.320;2022-10-15T06:59:55;12.80;;;8.23;;
38399;SDS011;24180;42.676;23.320;2022-10-15T07:02:21;11.43;;;7.97;;
38399;SDS011;24180;42.676;23.320;2022-10-15T07:04:48;16.67;;;7.80;;
38399;SDS011;24180;42.676;23.320;2022-10-15T07:07:14;10.53;;;7.53;;
38399;SDS011;24180;42.676;23.320;2022-10-15T07:09:39;21.50;;;9.47;;
38399;SDS011;24180;42.676;23.320;2022-10-15T07:12:05;8.63;;;7.20;;
38399;SDS011;24180;42.676;23.320;2022-10-15T07:14:30;10.40;;;7.50;;
38399;SDS011;24180;42.676;23.320;2022-10-15T07:16:56;8.40;;;7.03;;
38399;SDS011;24180;42.676;23.320;2022-10-15T07:19:22;13.73;;;7.67;;
38399;SDS011;24180;42.676;23.320;2022-10-15T07:21:47;21.43;;;8.07;;
38399;SDS011;24180;42.676;23.320;2022-10-15T07:24:13;9.87;;;7.30;;
38399;SDS011;24180;42.676;23.320;2022-10-15T07:26:38;9.97;;;7.10;;
38399;SDS011;24180;42.676;23.320;2022-10-15T07:29:04;9.50;;;7.60;;
38399;SDS011;24180;42.676;23.320;2022-10-15T07:31:30;7.83;;;6.60;;
38399;SDS011;24180;42.676;23.320;2022-10-15T07:33:56;9.47;;;7.07;;
38399;SDS011;24180;42.676;23.320;2022-10-15T07:36:23;8.00;;;6.97;;
38399;SDS011;24180;42.676;23.320;2022-10-15T07:38:49;8.00;;;7.07;;
38399;SDS011;24180;42.676;23.320;2022-10-15T07:41:15;9.33;;;8.17;;
38399;SDS011;24180;42.676;23.320;2022-10-15T07:43:40;9.27;;;7.60;;
38399;SDS011;24180;42.676;23.320;2022-10-15T07:46:08;8.57;;;7.60;;
38399;SDS011;24180;42.676;23.320;2022-10-15T07:48:34;9.33;;;7.90;;
38399;SDS011;24180;42.676;23.320;2022-10-15T07:51:00;8.53;;;6.67;;
38399;SDS011;24180;42.676;23.320;2022-10-15T07:53:28;11.93;;;7.60;;
38399;SDS011;24180;42.676;23.320;2022-10-15T07:55:56;9.23;;;6.80;;
38399;SDS011;24180;42.676;23.320;2022-10-15T07:58:24;10.53;;;7.00;;
38399;SDS011;24180;42.676;23.320;2022-10-15T08:00:49;8.40;;;7.00;;
38399;SDS011;24180;42.676;23.320;2022-10-15T08:03:15;7.60;;;6.90;;
38399;SDS011;24180;42.676;23.320;2022-10-15T08:05:40;8.23;;;7.30;;
38399;SDS011;24180;42.676;23.320;2022-10-15T08:08:06;8.40;;;7.30;;
38399;SDS011;24180;42.676;23.320;2022-10-15T08:10:31;11.27;;;7.23;;
38399;SDS011;24180;42.676;23.320;2022-10-15T08:12:57;10.27;;;6.80;;
38399;SDS011;24180;42.676;23.320;2022-10-15T08:15:22;7.80;;;7.00;;
38399;SDS011;24180;42.676;23.320;2022-10-15T08:17:48;7.97;;;7.27;;
38399;SDS011;24180;42.676;23.320;2022-10-15T08:20:13;7.30;;;6.70;;
38399;SDS011;24180;42.676;23.320;2022-10-15T08:22:39;7.77;;;6.37;;
38399;SDS011;24180;42.676;23.320;2022-10-15T08:25:04;8.10;;;7.30;;
38399;SDS011;24180;42.676;23.320;2022-10-15T08:27:30;7.97;;;7.17;;
38399;SDS011;24180;42.676;23.320;2022-10-15T08:29:55;9.73;;;7.17;;
38399;SDS011;24180;42.676;23.320;2022-10-15T08:32:21;7.40;;;6.43;;
38399;SDS011;24180;42.676;23.320;2022-10-15T08:34:46;7.80;;;7.00;;
38399;SDS011;24180;42.676;23.320;2022-10-15T08:37:12;10.67;;;6.43;;
38399;SDS011;24180;42.676;23.320;2022-10-15T08:39:38;8.33;;;6.73;;
38399;SDS011;24180;42.676;23.320;2022-10-15T08:42:04;8.67;;;7.03;;
38399;SDS011;24180;42.676;23.320;2022-10-15T08:44:43;7.63;;;6.93;;
38399;SDS011;24180;42.676;23.320;2022-10-15T08:47:24;8.80;;;6.50;;
38399;SDS011;24180;42.676;23.320;2022-10-15T08:49:58;8.27;;;6.57;;
38399;SDS011;24180;42.676;23.320;2022-10-15T08:52:42;7.30;;;6.60;;
38399;SDS011;24180;42.676;23.320;2022-10-15T08:55:11;8.13;;;7.33;;
38399;SDS011;24180;42.676;23.320;2022-10-15T08:57:58;8.17;;;7.37;;
38399;SDS011;24180;42.676;23.320;2022-10-15T09:06:26;7.00;;;6.30;;
38399;SDS011;24180;42.676;23.320;2022-10-15T09:14:30;12.53;;;6.60;;
38399;SDS011;24180;42.676;23.320;2022-10-15T09:17:04;7.07;;;6.30;;
38399;SDS011;24180;42.676;23.320;2022-10-15T09:19:38;9.00;;;6.23;;
38399;SDS011;24180;42.676;23.320;2022-10-15T09:22:08;7.33;;;5.60;;
38399;SDS011;24180;42.676;23.320;2022-10-15T09:24:38;7.50;;;5.97;;
38399;SDS011;24180;42.676;23.320;2022-10-15T09:27:07;7.93;;;7.13;;
38399;SDS011;24180;42.676;23.320;2022-10-15T09:29:46;8.30;;;6.53;;
38399;SDS011;24180;42.676;23.320;2022-10-15T09:34:58;7.23;;;6.43;;
38399;SDS011;24180;42.676;23.320;2022-10-15T09:43:08;9.95;;;8.00;;
38399;SDS011;24180;42.676;23.320;2022-10-15T09:45:34;7.28;;;6.57;;
38399;SDS011;24180;42.676;23.320;2022-10-15T09:48:00;7.22;;;5.93;;
38399;SDS011;24180;42.676;23.320;2022-10-15T09:50:33;7.05;;;6.35;;
38399;SDS011;24180;42.676;23.320;2022-10-15T10:01:17;87.88;;;13.15;;
38399;SDS011;24180;42.676;23.320;2022-10-15T10:03:50;10.00;;;7.90;;
38399;SDS011;24180;42.676;23.320;2022-10-15T10:06:18;13.13;;;7.70;;
38399;SDS011;24180;42.676;23.320;2022-10-15T10:08:50;8.68;;;7.88;;
38399;SDS011;24180;42.676;23.320;2022-10-15T10:11:24;14.05;;;8.32;;
38399;SDS011;24180;42.676;23.320;2022-10-15T10:13:54;12.15;;;7.50;;
38399;SDS011;24180;42.676;23.320;2022-10-15T10:16:21;11.73;;;6.70;;
38399;SDS011;24180;42.676;23.320;2022-10-15T10:19:01;8.68;;;6.72;;
38399;SDS011;24180;42.676;23.320;2022-10-15T10:21:38;7.25;;;6.65;;
38399;SDS011;24180;42.676;23.320;2022-10-15T10:24:19;7.82;;;6.50;;
38399;SDS011;24180;42.676;23.320;2022-10-15T10:26:48;8.25;;;6.57;;
38399;SDS011;24180;42.676;23.320;2022-10-15T10:29:16;7.82;;;6.03;;
38399;SDS011;24180;42.676;23.320;2022-10-15T10:32:16;6.53;;;5.95;;
38399;SDS011;24180;42.676;23.320;2022-10-15T10:34:45;6.88;;;6.38;;
38399;SDS011;24180;42.676;23.320;2022-10-15T10:37:11;6.75;;;5.85;;
38399;SDS011;24180;42.676;23.320;2022-10-15T10:39:37;6.82;;;6.22;;
38399;SDS011;24180;42.676;23.320;2022-10-15T10:42:06;6.90;;;6.20;;
38399;SDS011;24180;42.676;23.320;2022-10-15T10:44:44;8.23;;;7.47;;
38399;SDS011;24180;42.676;23.320;2022-10-15T10:47:14;7.20;;;6.50;;
38399;SDS011;24180;42.676;23.320;2022-10-15T10:49:53;5.80;;;5.28;;
38399;SDS011;24180;42.676;23.320;2022-10-15T10:52:33;11.40;;;5.45;;
38399;SDS011;24180;42.676;23.320;2022-10-15T10:57:39;5.78;;;4.55;;
38399;SDS011;24180;42.676;23.320;2022-10-15T11:00:07;7.07;;;6.45;;
38399;SDS011;24180;42.676;23.320;2022-10-15T11:02:39;7.68;;;7.10;;
38399;SDS011;24180;42.676;23.320;2022-10-15T11:05:08;5.57;;;5.07;;
38399;SDS011;24180;42.676;23.320;2022-10-15T11:10:18;7.75;;;5.30;;
38399;SDS011;24180;42.676;23.320;2022-10-15T11:21:05;6.20;;;5.63;;
38399;SDS011;24180;42.676;23.320;2022-10-15T11:31:58;6.43;;;5.38;;
38399;SDS011;24180;42.676;23.320;2022-10-15T11:34:40;6.05;;;5.57;;
38399;SDS011;24180;42.676;23.320;2022-10-15T11:37:22;11.98;;;5.13;;
38399;SDS011;24180;42.676;23.320;2022-10-15T11:42:54;5.97;;;4.55;;
38399;SDS011;24180;42.676;23.320;2022-10-15T11:51:27;6.03;;;5.32;;
38399;SDS011;24180;42.676;23.320;2022-10-15T11:56:49;6.15;;;5.75;;
38399;SDS011;24180;42.676;23.320;2022-10-15T12:02:05;5.82;;;5.43;;
38399;SDS011;24180;42.676;23.320;2022-10-15T12:04:54;5.20;;;4.80;;
38399;SDS011;24180;42.676;23.320;2022-10-15T12:07:29;4.72;;;3.90;;
38399;SDS011;24180;42.676;23.320;2022-10-15T12:10:05;4.50;;;4.10;;
38399;SDS011;24180;42.676;23.320;2022-10-15T12:15:37;11.32;;;10.60;;
38399;SDS011;24180;42.676;23.320;2022-10-15T12:20:32;5.27;;;4.93;;
38399;SDS011;24180;42.676;23.320;2022-10-15T12:22:59;5.10;;;4.60;;
38399;SDS011;24180;42.676;23.320;2022-10-15T12:30:30;5.83;;;4.50;;
38399;SDS011;24180;42.676;23.320;2022-10-15T12:33:01;4.27;;;3.93;;
38399;SDS011;24180;42.676;23.320;2022-10-15T12:35:31;4.73;;;4.10;;
38399;SDS011;24180;42.676;23.320;2022-10-15T12:40:56;4.20;;;3.90;;
38399;SDS011;24180;42.676;23.320;2022-10-15T12:43:25;5.20;;;4.80;;
38399;SDS011;24180;42.676;23.320;2022-10-15T12:45:53;4.87;;;4.10;;
38399;SDS011;24180;42.676;23.320;2022-10-15T12:48:26;4.67;;;3.50;;
38399;SDS011;24180;42.676;23.320;2022-10-15T12:53:48;5.20;;;4.68;;
38399;SDS011;24180;42.676;23.320;2022-10-15T12:58:41;5.57;;;4.50;;
38399;SDS011;24180;42.676;23.320;2022-10-15T13:11:24;5.03;;;4.38;;
38399;SDS011;24180;42.676;23.320;2022-10-15T13:13:56;5.15;;;4.40;;
38399;SDS011;24180;42.676;23.320;2022-10-15T13:16:44;6.57;;;5.97;;
38399;SDS011;24180;42.676;23.320;2022-10-15T13:19:45;6.88;;;6.20;;
38399;SDS011;24180;42.676;23.320;2022-10-15T13:22:04;4.63;;;4.20;;
38399;SDS011;24180;42.676;23.320;2022-10-15T13:24:44;5.00;;;4.57;;
38399;SDS011;24180;42.676;23.320;2022-10-15T13:27:28;11.50;;;10.75;;
38399;SDS011;24180;42.676;23.320;2022-10-15T13:29:54;4.60;;;4.20;;
38399;SDS011;24180;42.676;23.320;2022-10-15T13:32:20;8.70;;;8.10;;
38399;SDS011;24180;42.676;23.320;2022-10-15T13:34:46;5.03;;;4.57;;
38399;SDS011;24180;42.676;23.320;2022-10-15T13:37:14;6.78;;;6.28;;
38399;SDS011;24180;42.676;23.320;2022-10-15T13:39:43;5.63;;;4.68;;
38399;SDS011;24180;42.676;23.320;2022-10-15T13:42:20;5.13;;;4.63;;
38399;SDS011;24180;42.676;23.320;2022-10-15T13:44:57;4.95;;;4.43;;
38399;SDS011;24180;42.676;23.320;2022-10-15T13:47:32;5.82;;;5.25;;
38399;SDS011;24180;42.676;23.320;2022-10-15T13:50:13;5.40;;;5.00;;
38399;SDS011;24180;42.676;23.320;2022-10-15T13:52:45;4.80;;;4.40;;
38399;SDS011;24180;42.676;23.320;2022-10-15T13:55:15;5.35;;;4.20;;
38399;SDS011;24180;42.676;23.320;2022-10-15T13:57:58;5.50;;;5.10;;
38399;SDS011;24180;42.676;23.320;2022-10-15T14:00:30;5.63;;;5.13;;
38399;SDS011;24180;42.676;23.320;2022-10-15T14:05:48;5.78;;;4.90;;
38399;SDS011;24180;42.676;23.320;2022-10-15T14:08:16;5.97;;;5.35;;
38399;SDS011;24180;42.676;23.320;2022-10-15T14:10:58;7.55;;;4.97;;
38399;SDS011;24180;42.676;23.320;2022-10-15T14:13:24;6.13;;;4.75;;
38399;SDS011;24180;42.676;23.320;2022-10-15T14:15:52;5.30;;;4.80;;
38399;SDS011;24180;42.676;23.320;2022-10-15T14:18:39;5.00;;;4.50;;
38399;SDS011;24180;42.676;23.320;2022-10-15T14:21:11;5.83;;;4.60;;
38399;SDS011;24180;42.676;23.320;2022-10-15T14:23:39;6.30;;;5.50;;
38399;SDS011;24180;42.676;23.320;2022-10-15T14:26:07;4.97;;;4.53;;
38399;SDS011;24180;42.676;23.320;2022-10-15T14:28:35;6.70;;;4.45;;
38399;SDS011;24180;42.676;23.320;2022-10-15T14:31:02;6.28;;;4.25;;
38399;SDS011;24180;42.676;23.320;2022-10-15T14:36:07;6.13;;;4.37;;
38399;SDS011;24180;42.676;23.320;2022-10-15T14:38:35;5.30;;;4.83;;
38399;SDS011;24180;42.676;23.320;2022-10-15T14:41:03;5.60;;;5.10;;
38399;SDS011;24180;42.676;23.320;2022-10-15T14:43:45;5.60;;;4.40;;
38399;SDS011;24180;42.676;23.320;2022-10-15T14:46:16;6.17;;;4.50;;
38399;SDS011;24180;42.676;23.320;2022-10-15T14:48:43;4.97;;;4.00;;
38399;SDS011;24180;42.676;23.320;2022-10-15T14:51:22;5.23;;;3.90;;
38399;SDS011;24180;42.676;23.320;2022-10-15T14:53:49;8.00;;;4.40;;
38399;SDS011;24180;42.676;23.320;2022-10-15T14:56:20;4.40;;;4.03;;
38399;SDS011;24180;42.676;23.320;2022-10-15T14:58:49;5.93;;;5.07;;
38399;SDS011;24180;42.676;23.320;2022-10-15T15:01:18;4.30;;;3.93;;
38399;SDS011;24180;42.676;23.320;2022-10-15T15:03:46;6.33;;;4.33;;
38399;SDS011;24180;42.676;23.320;2022-10-15T15:06:14;5.17;;;4.13;;
38399;SDS011;24180;42.676;23.320;2022-10-15T15:08:39;6.23;;;4.30;;
38399;SDS011;24180;42.676;23.320;2022-10-15T15:11:09;5.07;;;4.20;;
38399;SDS011;24180;42.676;23.320;2022-10-15T15:13:38;5.70;;;5.10;;
38399;SDS011;24180;42.676;23.320;2022-10-15T15:16:10;4.97;;;4.40;;
38399;SDS011;24180;42.676;23.320;2022-10-15T15:18:37;4.47;;;4.17;;
38399;SDS011;24180;42.676;23.320;2022-10-15T15:21:04;5.07;;;4.57;;
38399;SDS011;24180;42.676;23.320;2022-10-15T15:23:32;5.03;;;4.00;;
38399;SDS011;24180;42.676;23.320;2022-10-15T15:25:59;4.70;;;4.30;;
38399;SDS011;24180;42.676;23.320;2022-10-15T15:28:25;7.27;;;4.60;;
38399;SDS011;24180;42.676;23.320;2022-10-15T15:31:00;4.63;;;4.23;;
38399;SDS011;24180;42.676;23.320;2022-10-15T15:33:29;6.53;;;4.90;;
38399;SDS011;24180;42.676;23.320;2022-10-15T15:36:28;6.47;;;5.17;;
38399;SDS011;24180;42.676;23.320;2022-10-15T15:38:47;6.70;;;5.20;;
38399;SDS011;24180;42.676;23.320;2022-10-15T15:41:17;5.27;;;4.77;;
38399;SDS011;24180;42.676;23.320;2022-10-15T15:43:44;6.83;;;4.83;;
38399;SDS011;24180;42.676;23.320;2022-10-15T15:46:10;6.47;;;5.03;;
38399;SDS011;24180;42.676;23.320;2022-10-15T15:48:36;5.97;;;4.50;;
38399;SDS011;24180;42.676;23.320;2022-10-15T15:53:52;4.77;;;4.27;;
38399;SDS011;24180;42.676;23.320;2022-10-15T15:56:18;6.07;;;4.10;;
38399;SDS011;24180;42.676;23.320;2022-10-15T15:58:43;6.00;;;4.70;;
38399;SDS011;24180;42.676;23.320;2022-10-15T16:01:09;5.10;;;4.60;;
38399;SDS011;24180;42.676;23.320;2022-10-15T16:03:36;5.57;;;4.00;;
38399;SDS011;24180;42.676;23.320;2022-10-15T16:06:04;6.33;;;5.13;;
38399;SDS011;24180;42.676;23.320;2022-10-15T16:08:31;5.57;;;4.50;;
38399;SDS011;24180;42.676;23.320;2022-10-15T16:11:03;7.43;;;4.33;;
38399;SDS011;24180;42.676;23.320;2022-10-15T16:13:30;5.50;;;4.27;;
38399;SDS011;24180;42.676;23.320;2022-10-15T16:15:56;7.40;;;5.30;;
38399;SDS011;24180;42.676;23.320;2022-10-15T16:18:22;6.40;;;4.37;;
38399;SDS011;24180;42.676;23.320;2022-10-15T16:20:47;6.83;;;4.73;;
38399;SDS011;24180;42.676;23.320;2022-10-15T16:23:13;5.97;;;5.23;;
38399;SDS011;24180;42.676;23.320;2022-10-15T16:25:39;6.47;;;5.50;;
38399;SDS011;24180;42.676;23.320;2022-10-15T16:28:04;7.57;;;5.00;;
38399;SDS011;24180;42.676;23.320;2022-10-15T16:30:30;5.57;;;5.03;;
38399;SDS011;24180;42.676;23.320;2022-10-15T16:32:55;8.30;;;5.53;;
38399;SDS011;24180;42.676;23.320;2022-10-15T16:35:22;7.97;;;5.43;;
38399;SDS011;24180;42.676;23.320;2022-10-15T16:37:48;5.70;;;5.10;;
38399;SDS011;24180;42.676;23.320;2022-10-15T16:40:16;7.83;;;5.10;;
38399;SDS011;24180;42.676;23.320;2022-10-15T16:42:43;7.43;;;5.60;;
38399;SDS011;24180;42.676;23.320;2022-10-15T16:45:08;8.80;;;6.00;;
38399;SDS011;24180;42.676;23.320;2022-10-15T16:47:34;7.57;;;5.40;;
38399;SDS011;24180;42.676;23.320;2022-10-15T16:50:00;6.83;;;5.13;;
38399;SDS011;24180;42.676;23.320;2022-10-15T16:52:26;7.77;;;5.27;;
38399;SDS011;24180;42.676;23.320;2022-10-15T16:54:51;6.17;;;5.57;;
38399;SDS011;24180;42.676;23.320;2022-10-15T16:57:17;7.93;;;5.60;;